Latest Coastal Weather Observations for Portland Harbour

IDS60701

Issued at 11:55 pm CDT Saturday 25 October 2014 (issued every 10 minutes, with the page automatically refreshed every 10 minutes)

About coastal observations | Map of coastal stations | Coastal observations for SA | Marine services | Other Formats
Station Details ID: 090192 Name: PORTLAND NTC AWS Lat: -38.34 Lon: 141.61 Height: 0.0 m
Data from the previous 72 hours. | See also: Recent months for locations in South Australia
Date/Time
CDT
Temp

°C
Wind Pressure Rain
since 9am
mm
Weather Cloud Vis
km
Sea
Height
m
Swell
Dir
 
Speed
knots
Gust
knots
hPa Trend Height
m
Period
s
Dir
25/11:30pm 13.3 E 7 10 1015.6 - - - - - - - - -
25/11:00pm 12.9 ESE 7 10 1016.3 - - - - - - - - -
25/10:30pm 13.3 ESE 7 12 1016.5 - - - - - - - - -
25/10:00pm 13.3 ESE 5 7 1016.5 - - - - - - - - -
25/09:30pm 13.4 SE 8 11 1016.9 - - - - - - - - -
25/09:00pm 13.3 SE 7 11 1017.2 - - - - - - - - -
25/08:30pm 13.6 SE 7 11 1017.0 - - - - - - - - -
25/08:00pm 13.8 ESE 6 9 1016.7 - - - - - - - - -
25/07:30pm 13.7 SE 6 9 1016.7 - - - - - - - - -
25/07:00pm 13.9 SE 6 11 1016.7 - - - - - - - - -
25/06:30pm 14.2 SE 7 9 1016.7 - - - - - - - - -
25/06:00pm 14.3 SE 7 11 1016.3 - - - - - - - - -
25/05:30pm 13.9 SE 9 15 1016.3 - - - - - - - - -
25/05:00pm 14.2 SE 8 11 1016.3 - - - - - - - - -
25/04:30pm 13.9 SE 7 10 1016.6 - - - - - - - - -
25/04:00pm 14.1 SE 11 14 1016.0 - - - - - - - - -
25/03:30pm 14.4 SE 9 11 1016.6 - - - - - - - - -
25/03:00pm 14.3 SE 9 12 1016.6 - - - - - - - - -
25/02:30pm 14.4 ESE 10 14 1016.7 - - - - - - - - -
25/02:00pm 14.4 SE 9 12 1016.9 - - - - - - - - -
25/01:30pm 14.4 SE 10 13 1017.2 - - - - - - - - -
25/01:00pm 14.6 SE 10 12 1017.4 - - - - - - - - -
25/12:30pm 14.7 SE 9 11 1017.4 - - - - - - - - -
25/12:00pm 14.3 SE 10 12 1017.8 - - - - - - - - -
25/11:30am 14.3 SE 9 12 1017.8 - - - - - - - - -
25/11:00am 14.1 SE 8 10 1018.0 - - - - - - - - -
25/10:30am 13.8 SE 8 10 1017.7 - - - - - - - - -
25/10:00am 13.9 ESE 7 10 1017.4 - - - - - - - - -
25/09:30am 13.8 ESE 8 10 1017.5 - - - - - - - - -
25/09:00am 13.4 SE 9 11 1017.7 - - - - - - - - -
25/08:30am 13.9 SE 7 9 1018.1 - - - - - - - - -
25/08:00am 13.7 SE 7 9 1017.9 - - - - - - - - -
25/07:30am 13.7 SSE 8 11 1017.7 - - - - - - - - -
25/07:00am 13.1 ESE 5 9 1017.5 - - - - - - - - -
25/06:30am 12.9 SE 10 12 1017.2 - - - - - - - - -
25/06:00am 13.2 SSE 9 11 1016.8 - - - - - - - - -
25/05:30am 13.2 S 5 6 1016.6 - - - - - - - - -
25/05:00am 13.7 SSE 5 8 1016.6 - - - - - - - - -
25/04:30am 13.6 S 4 6 1016.4 - - - - - - - - -
25/04:00am 14.1 SSE 6 10 1016.3 - - - - - - - - -
25/03:30am 14.0 S 7 9 1016.3 - - - - - - - - -
25/03:00am 13.9 SSE 4 6 1015.9 - - - - - - - - -
25/02:30am 13.9 S 6 10 1016.0 - - - - - - - - -
25/02:00am 14.4 S 7 9 1016.1 - - - - - - - - -
25/01:30am 14.4 S 5 8 1016.4 - - - - - - - - -
25/01:00am 14.4 S 7 12 1016.8 - - - - - - - - -
25/12:30am 14.4 S 8 11 1016.9 - - - - - - - - -
25/12:00am 14.5 S 8 11 1017.0 - - - - - - - - -
 
Date/Time
CDT
Temp

°C
Wind Pressure Rain
since 9am
mm
Weather Cloud Vis
km
Sea
Height
m
Swell
Dir
 
Speed
knots
Gust
knots
hPa Trend Height
m
Period
s
Dir
24/11:30pm 14.5 SSW 6 14 1016.8 - - - - - - - - -
24/11:00pm 14.5 SSW 8 12 1016.9 - - - - - - - - -
24/10:30pm 14.4 SW 6 9 1016.7 - - - - - - - - -
24/10:00pm 14.4 SW 8 11 1016.5 - - - - - - - - -
24/09:30pm 14.6 SW 8 11 1016.3 - - - - - - - - -
24/09:00pm 14.6 WSW 8 12 1016.0 - - - - - - - - -
24/08:30pm 14.9 WSW 7 10 1015.8 - - - - - - - - -
24/08:00pm 14.9 SW 9 14 1015.3 - - - - - - - - -
24/07:30pm 14.9 WSW 11 14 1014.9 - - - - - - - - -
24/07:00pm 15.1 WSW 11 16 1014.6 - - - - - - - - -
24/06:30pm 15.3 W 11 16 1014.1 - - - - - - - - -
24/06:00pm 15.4 W 16 21 1013.7 - - - - - - - - -
24/05:30pm 15.8 W 13 20 1013.0 - - - - - - - - -
24/05:00pm 15.9 WSW 15 23 1013.0 - - - - - - - - -
24/04:44pm 15.7 WSW 16 27 1012.9 - - - - - - - - -
24/04:30pm 15.9 W 14 21 1012.8 - - - - - - - - -
24/04:00pm 16.1 WSW 16 27 1012.5 - - - - - - - - -
24/03:58pm 16.3 WSW 16 27 1012.6 - - - - - - - - -
24/03:30pm 16.8 W 13 22 1012.2 - - - - - - - - -
24/03:00pm 17.4 W 15 21 1012.1 - - - - - - - - -
24/02:30pm 16.6 W 19 23 1011.7 - - - - - - - - -
24/02:00pm 17.0 W 16 23 1011.7 - - - - - - - - -
24/01:30pm 17.3 WNW 14 20 1011.7 - - - - - - - - -
24/01:00pm 16.6 W 14 20 1012.0 - - - - - - - - -
24/12:30pm 16.6 W 11 19 1012.0 - - - - - - - - -
24/12:00pm 15.8 W 14 21 1012.4 - - - - - - - - -
24/11:30am 15.8 W 13 19 1012.5 - - - - - - - - -
24/11:00am 16.1 W 17 23 1012.3 - - - - - - - - -
24/10:30am 18.9 W 13 19 1012.0 - - - - - - - - -
24/10:00am 19.1 W 14 19 1012.0 - - - - - - - - -
24/09:30am 18.3 NW 6 9 1011.1 - - - - - - - - -
24/09:00am 16.9 NW 4 10 1011.3 - - - - - - - - -
24/08:30am 15.0 NNW 3 4 1011.7 - - - - - - - - -
24/08:00am 14.4 N 5 5 1011.7 - - - - - - - - -
24/07:30am 14.5 N 4 5 1011.7 - - - - - - - - -
24/07:00am 14.6 N 4 5 1011.4 - - - - - - - - -
24/06:30am 14.9 NNE 4 5 1011.2 - - - - - - - - -
24/06:00am 15.0 NE 6 7 1011.3 - - - - - - - - -
24/05:30am 15.1 ENE 7 8 1011.1 - - - - - - - - -
24/05:00am 15.3 ENE 9 10 1011.2 - - - - - - - - -
24/04:30am 15.4 ENE 9 11 1011.3 - - - - - - - - -
24/04:00am 15.6 ENE 8 10 1011.4 - - - - - - - - -
24/03:30am 15.7 ENE 9 11 1011.5 - - - - - - - - -
24/03:00am 15.7 NE 11 13 1011.7 - - - - - - - - -
24/02:30am 15.7 ENE 10 12 1012.2 - - - - - - - - -
24/02:00am 15.9 ENE 9 11 1012.5 - - - - - - - - -
24/01:30am 16.0 ENE 11 13 1013.0 - - - - - - - - -
24/01:00am 16.0 ENE 11 14 1013.5 - - - - - - - - -
24/12:30am 15.9 E 12 16 1013.7 - - - - - - - - -
24/12:00am 15.9 E 12 15 1013.9 - - - - - - - - -
 
Date/Time
CDT
Temp

°C
Wind Pressure Rain
since 9am
mm
Weather Cloud Vis
km
Sea
Height
m
Swell
Dir
 
Speed
knots
Gust
knots
hPa Trend Height
m
Period
s
Dir
23/11:30pm 15.9 E 12 15 1014.3 - - - - - - - - -
23/11:00pm 15.5 E 8 11 1014.8 - - - - - - - - -
23/10:30pm 15.6 E 8 11 1014.9 - - - - - - - - -
23/10:00pm 15.4 E 8 9 1015.3 - - - - - - - - -
23/09:30pm 15.2 ENE 8 9 1015.2 - - - - - - - - -
23/09:00pm 15.2 E 7 8 1015.4 - - - - - - - - -
23/08:30pm 15.1 ESE 6 9 1015.3 - - - - - - - - -
23/08:00pm 14.9 ESE 7 9 1015.4 - - - - - - - - -
23/07:30pm 14.8 ESE 8 10 1015.3 - - - - - - - - -
23/07:00pm 14.7 SE 8 10 1015.7 - - - - - - - - -
23/06:30pm 14.6 ESE 10 13 1015.9 - - - - - - - - -
23/06:00pm 14.7 ESE 11 14 1015.8 - - - - - - - - -
23/05:30pm 14.9 ESE 11 13 1015.9 - - - - - - - - -
23/05:00pm 14.9 SE 12 15 1016.0 - - - - - - - - -
23/04:30pm 14.8 ESE 11 14 1016.1 - - - - - - - - -
23/04:00pm 14.7 E 12 17 1016.2 - - - - - - - - -
23/03:30pm 14.5 ESE 12 15 1016.6 - - - - - - - - -
23/03:00pm 14.5 SE 10 14 1017.3 - - - - - - - - -
23/02:30pm 14.5 ESE 12 15 1017.4 - - - - - - - - -
23/02:00pm 14.4 ESE 11 17 1017.8 - - - - - - - - -
23/01:30pm 14.4 ESE 12 16 1018.1 - - - - - - - - -
23/01:00pm 14.1 ESE 14 18 1018.5 - - - - - - - - -
23/12:30pm 14.1 ESE 14 20 1018.9 - - - - - - - - -
23/12:00pm 14.0 ESE 16 19 1019.4 - - - - - - - - -
23/11:30am 13.8 SE 16 20 1019.7 - - - - - - - - -
23/11:00am 13.9 ESE 17 21 1019.9 - - - - - - - - -
23/10:30am 13.9 ESE 16 20 1020.3 - - - - - - - - -
23/10:00am 13.5 SE 18 24 1020.6 - - - - - - - - -
23/09:30am 13.5 ESE 15 21 1020.7 - - - - - - - - -
23/09:00am 13.7 ESE 16 19 1020.8 - - - - - - - - -
23/08:30am 13.7 SE 17 22 1020.9 - - - - - - - - -
23/08:00am 13.5 SE 15 20 1020.8 - - - - - - - - -
23/07:30am 13.6 SE 15 21 1020.8 - - - - - - - - -
23/07:00am 13.8 SE 17 22 1020.7 - - - - - - - - -
23/06:30am 13.6 SE 14 19 1020.6 - - - - - - - - -
23/06:00am 13.7 SE 16 20 1020.3 - - - - - - - - -
23/05:30am 14.0 SE 15 21 1020.3 - - - - - - - - -
23/05:00am 14.1 SE 14 18 1020.1 - - - - - - - - -
23/04:30am 14.1 SE 15 20 1020.1 - - - - - - - - -
23/04:00am 13.9 SE 14 19 1020.2 - - - - - - - - -
23/03:30am 14.1 SE 14 19 1020.3 - - - - - - - - -
23/03:00am 13.7 SE 13 19 1020.3 - - - - - - - - -
23/02:30am 13.7 SE 15 18 1020.6 - - - - - - - - -
23/02:00am 13.9 SE 11 17 1020.6 - - - - - - - - -
23/01:30am 13.9 SE 13 17 1020.7 - - - - - - - - -
23/01:00am 13.9 SE 12 17 1020.7 - - - - - - - - -
23/12:30am 13.8 SSE 11 15 1021.0 - - - - - - - - -
23/12:00am 13.9 SE 12 17 1021.1 - - - - - - - - -
 
Date/Time
CDT
Temp

°C
Wind Pressure Rain
since 9am
mm
Weather Cloud Vis
km
Sea
Height
m
Swell
Dir
 
Speed
knots
Gust
knots
hPa Trend Height
m
Period
s
Dir
22/11:30pm 13.8 SE 14 18 1021.1 - - - - - - - - -

Other Formats:

Comma delimited format used in spreadsheet applications
http://www.bom.gov.au/fwo/IDS60701/IDS60701.95826.axf

JavaScript Object Notation format (JSON) in row-major order
http://www.bom.gov.au/fwo/IDS60701/IDS60701.95826.json